Time;durP1;ratioP1;P1;durP2;ratioP2;P2;SDS_P1;SDS_P2;PMS_P1;PMS_P2;Temp;Humidity;BMP_temperature;BMP_pressure;BME280_temperature;BME280_humidity;BME280_pressure;Samples;Min_cycle;Max_cycle;Signal;HPM_P1;HPM_P2
2022/01/29 00:02:11;;;;;;;20.50;16.70;;;;;;;-0.13;87.29;98777.63;109645;1273;23303;-71
2022/01/29 00:04:53;;;;;;;23.40;17.00;;;;;;;-0.21;87.63;98772.88;109678;1273;22411;-71
2022/01/29 00:07:34;;;;;;;22.40;14.40;;;;;;;-0.31;87.31;98774.05;109656;1273;22849;-72
2022/01/29 00:10:13;;;;;;;17.90;12.50;;;;;;;-0.37;86.76;98776.38;109677;1273;23770;-72
2022/01/29 00:12:42;;;;;;;17.90;14.10;;;;;;;-0.45;86.58;98775.61;109658;1274;22466;-71
2022/01/29 00:15:11;;;;;;;18.30;14.40;;;;;;;-0.48;86.92;98779.88;109502;1274;22560;-71
2022/01/29 00:17:41;;;;;;;22.50;17.70;;;;;;;-0.53;87.15;98783.65;109693;1274;22532;-70
2022/01/29 00:20:10;;;;;;;25.10;18.00;;;;;;;-0.55;87.36;98782.27;109673;1273;23244;-70
2022/01/29 00:22:40;;;;;;;18.60;13.50;;;;;;;-0.59;87.06;98783.08;109659;1273;22413;-70
2022/01/29 00:25:11;;;;;;;18.70;13.10;;;;;;;-0.62;86.70;98784.22;109668;1274;22559;-71
2022/01/29 00:27:46;;;;;;;18.70;14.30;;;;;;;-0.62;86.67;98785.20;109538;1272;138248;-69
2022/01/29 00:30:42;;;;;;;16.30;13.50;;;;;;;-0.63;86.48;98785.52;109489;1274;22488;-70
2022/01/29 00:33:16;;;;;;;18.40;12.70;;;;;;;-0.70;86.60;98789.48;109558;1274;22472;-70
2022/01/29 00:36:02;;;;;;;16.80;12.60;;;;;;;-0.75;86.69;98791.55;109576;1274;22415;-70
2022/01/29 00:38:38;;;;;;;17.00;12.40;;;;;;;-0.76;86.66;98793.67;109665;1273;23140;-71
2022/01/29 00:41:17;;;;;;;17.60;13.40;;;;;;;-0.75;86.51;98790.86;109679;1273;22443;-68
2022/01/29 00:43:45;;;;;;;15.80;12.20;;;;;;;-0.77;86.52;98787.39;109671;1274;22549;-71
2022/01/29 00:46:13;;;;;;;19.70;14.40;;;;;;;-0.81;86.05;98789.36;109680;1273;22594;-70
2022/01/29 00:48:41;;;;;;;16.70;11.60;;;;;;;-0.84;86.60;98790.86;109653;1273;22531;-69
2022/01/29 00:51:09;;;;;;;16.20;12.90;;;;;;;-0.87;86.55;98784.91;109664;1274;22447;-70
2022/01/29 00:53:37;;;;;;;14.30;10.70;;;;;;;-0.89;86.09;98786.73;109641;1273;23325;-69
2022/01/29 00:56:07;;;;;;;16.40;13.30;;;;;;;-0.90;86.11;98787.89;109685;1273;22452;-68
2022/01/29 00:58:35;;;;;;;18.30;13.40;;;;;;;-0.92;86.08;98789.76;109665;1273;22399;-66
2022/01/29 01:01:03;;;;;;;18.80;14.30;;;;;;;-0.96;86.28;98785.80;109679;1273;22391;-66
2022/01/29 01:03:32;;;;;;;19.30;13.90;;;;;;;-1.00;86.35;98783.39;109678;1274;23229;-66
2022/01/29 01:06:00;;;;;;;18.00;15.30;;;;;;;-1.05;86.55;98787.02;109666;1274;23116;-66
2022/01/29 01:08:29;;;;;;;21.80;15.50;;;;;;;-1.08;86.66;98789.94;109676;1274;22438;-67
2022/01/29 01:10:57;;;;;;;16.30;13.20;;;;;;;-1.11;86.48;98784.80;109503;1274;22512;-66
2022/01/29 01:13:25;;;;;;;17.80;14.10;;;;;;;-1.11;86.27;98792.30;109677;1274;22478;-67
2022/01/29 01:15:53;;;;;;;19.20;13.10;;;;;;;-1.17;86.09;98792.53;109668;1274;22445;-66
2022/01/29 01:18:24;;;;;;;17.50;13.10;;;;;;;-1.24;85.97;98795.33;109670;1274;22448;-66
2022/01/29 01:20:57;;;;;;;19.20;13.90;;;;;;;-1.31;85.95;98790.47;109682;1274;22475;-66
2022/01/29 01:23:30;;;;;;;16.30;13.40;;;;;;;-1.39;86.28;98791.30;109685;1273;22437;-66
2022/01/29 01:26:02;;;;;;;15.00;11.80;;;;;;;-1.47;85.62;98794.63;109684;1274;22433;-67
2022/01/29 01:28:37;;;;;;;16.90;12.90;;;;;;;-1.51;85.74;98790.47;109690;1274;23208;-67
2022/01/29 01:31:12;;;;;;;17.10;12.20;;;;;;;-1.54;85.69;98787.52;109708;1273;22440;-67
2022/01/29 01:33:57;;;;;;;17.20;12.90;;;;;;;-1.59;85.77;98787.54;109655;1273;22454;-66
2022/01/29 01:36:57;;;;;;;17.00;12.80;;;;;;;-1.64;85.92;98787.29;109684;1273;23232;-66
2022/01/29 01:39:34;;;;;;;17.80;14.70;;;;;;;-1.69;85.65;98786.28;109582;1274;22376;-68
2022/01/29 01:42:21;;;;;;;21.40;14.00;;;;;;;-1.75;86.06;98787.40;109684;1273;22542;-68
2022/01/29 01:44:55;;;;;;;;;;;;;;;-1.77;86.06;98780.81;109710;1274;22543;-67
2022/01/29 01:47:23;;;;;;;20.80;16.90;;;;;;;-1.77;86.32;98782.92;109672;1273;23186;-68
2022/01/29 01:49:52;;;;;;;22.10;18.70;;;;;;;-1.77;86.15;98781.62;109684;1273;23281;-67
2022/01/29 01:52:20;;;;;;;20.80;16.50;;;;;;;-1.78;85.93;98779.98;109651;1273;23218;-68
2022/01/29 01:54:57;;;;;;;19.20;16.10;;;;;;;-1.79;86.23;98782.99;109679;1273;22427;-67
2022/01/29 01:57:27;;;;;;;19.00;15.30;;;;;;;-1.81;86.01;98785.42;109697;1274;22508;-67
2022/01/29 01:59:56;;;;;;;17.20;13.50;;;;;;;-1.81;85.94;98787.58;109686;1274;22399;-67
2022/01/29 02:02:24;;;;;;;16.50;13.20;;;;;;;-1.79;85.63;98787.91;109697;1273;22558;-67
2022/01/29 02:04:53;;;;;;;16.80;14.20;;;;;;;-1.81;85.26;98785.98;109666;1273;23237;-67
2022/01/29 02:07:21;;;;;;;19.70;15.90;;;;;;;-1.82;85.70;98782.63;109683;1273;23168;-67
2022/01/29 02:09:50;;;;;;;22.50;16.30;;;;;;;-1.81;85.79;98781.98;109663;1272;22540;-67
2022/01/29 02:12:18;;;;;;;18.60;14.10;;;;;;;-1.82;85.76;98787.71;109666;1273;22500;-68
2022/01/29 02:14:46;;;;;;;18.50;13.80;;;;;;;-1.80;85.44;98791.24;109680;1273;22454;-68
2022/01/29 02:17:23;;;;;;;19.70;15.00;;;;;;;-1.75;85.58;98794.23;106173;1306;545253;-68
2022/01/29 02:19:51;;;;;;;20.50;15.10;;;;;;;-1.76;85.67;98792.05;108728;1284;22558;-68
2022/01/29 02:22:21;;;;;;;20.50;15.60;;;;;;;-1.77;85.68;98798.04;108719;1284;22483;-67
2022/01/29 02:24:49;;;;;;;21.10;15.30;;;;;;;-1.78;85.67;98796.70;108644;1285;23182;-67
2022/01/29 02:27:16;;;;;;;19.90;15.30;;;;;;;-1.79;85.68;98793.69;108642;1285;22543;-66
2022/01/29 02:29:48;;;;;;;20.50;15.40;;;;;;;-1.77;85.64;98796.95;108624;1285;22432;-66
2022/01/29 02:32:16;;;;;;;23.30;16.60;;;;;;;-1.76;85.36;98790.86;109700;1271;23562;-66
2022/01/29 02:34:44;;;;;;;23.20;17.50;;;;;;;-1.76;85.56;98796.54;109837;1271;22462;-66
2022/01/29 02:37:13;;;;;;;22.30;17.80;;;;;;;-1.78;85.55;98791.09;109839;1271;22359;-66
2022/01/29 02:39:43;;;;;;;19.40;16.00;;;;;;;-1.81;85.54;98793.96;109823;1271;22450;-65
2022/01/29 02:42:11;;;;;;;18.20;14.90;;;;;;;-1.84;85.46;98786.59;109834;1271;22476;-66
2022/01/29 02:44:39;;;;;;;19.20;16.20;;;;;;;-1.85;85.18;98785.48;109813;1271;22481;-66
2022/01/29 02:47:25;;;;;;;20.70;16.50;;;;;;;-1.89;85.19;98777.84;109764;1271;23092;-66
2022/01/29 02:49:53;;;;;;;;;;;;;;;-1.93;85.30;98777.49;109866;1271;22520;-66
2022/01/29 02:52:22;;;;;;;21.10;17.70;;;;;;;-1.99;85.60;98776.69;109822;1270;23233;-66
2022/01/29 02:54:51;;;;;;;19.00;15.70;;;;;;;-2.07;85.36;98766.37;109754;1271;23060;-68
2022/01/29 02:57:19;;;;;;;21.00;14.90;;;;;;;-2.08;85.47;98771.69;109822;1271;22482;-68
2022/01/29 02:59:47;;;;;;;20.70;16.10;;;;;;;-2.11;85.07;98772.23;109833;1271;22519;-67
2022/01/29 03:02:16;;;;;;;20.50;16.00;;;;;;;-2.17;85.14;98768.35;109827;1271;22502;-67
2022/01/29 03:04:44;;;;;;;22.40;18.50;;;;;;;-2.21;85.41;98769.47;109824;1271;22421;-67
2022/01/29 03:07:12;;;;;;;20.70;17.30;;;;;;;-2.26;85.38;98768.18;109829;1271;22458;-67
2022/01/29 03:09:40;;;;;;;20.00;15.60;;;;;;;-2.32;85.42;98766.73;109771;1271;22433;-67
2022/01/29 03:12:09;;;;;;;21.50;16.50;;;;;;;-2.33;85.33;98768.34;109836;1271;22595;-67
2022/01/29 03:14:37;;;;;;;21.70;17.90;;;;;;;-2.32;85.47;98772.41;109824;1270;22549;-67
2022/01/29 03:17:05;;;;;;;21.30;16.00;;;;;;;-2.33;85.44;98769.85;109828;1271;22445;-67
2022/01/29 03:19:33;;;;;;;23.80;19.00;;;;;;;-2.34;85.40;98765.50;109811;1270;22394;-67
2022/01/29 03:22:02;;;;;;;22.90;18.50;;;;;;;-2.39;85.50;98760.56;109820;1270;22515;-67
2022/01/29 03:24:30;;;;;;;24.70;19.30;;;;;;;-2.43;85.72;98762.73;109822;1271;22469;-68
2022/01/29 03:26:59;;;;;;;21.30;16.60;;;;;;;-2.47;85.59;98758.91;109717;1273;22423;-66
2022/01/29 03:29:27;;;;;;;22.30;16.40;;;;;;;-2.51;85.40;98750.54;109819;1271;22410;-67
2022/01/29 03:31:55;;;;;;;22.10;17.20;;;;;;;-2.51;85.33;98743.91;109837;1270;23521;-67
2022/01/29 03:34:23;;;;;;;26.00;18.60;;;;;;;-2.51;85.30;98743.99;109831;1271;23495;-67
2022/01/29 03:36:54;;;;;;;23.10;18.60;;;;;;;-2.52;85.48;98740.78;109822;1271;22556;-67
2022/01/29 03:39:24;;;;;;;22.40;19.80;;;;;;;-2.55;85.58;98739.35;109849;1271;22429;-68
2022/01/29 03:41:55;;;;;;;24.30;20.30;;;;;;;-2.59;85.73;98739.20;109691;1273;23049;-66
2022/01/29 03:44:23;;;;;;;28.40;21.50;;;;;;;-2.64;85.54;98740.34;109841;1271;22456;-67
2022/01/29 03:46:52;;;;;;;25.10;20.00;;;;;;;-2.68;85.49;98740.80;109834;1271;22479;-67
2022/01/29 03:49:20;;;;;;;25.90;19.70;;;;;;;-2.74;85.33;98740.98;109822;1271;22436;-68
2022/01/29 03:51:49;;;;;;;25.30;18.80;;;;;;;-2.78;85.38;98745.29;109738;1271;22708;-67
2022/01/29 03:54:17;;;;;;;28.20;20.00;;;;;;;-2.78;85.39;98740.45;109748;1271;22428;-66
2022/01/29 03:56:45;;;;;;;28.00;20.00;;;;;;;-2.78;85.65;98741.34;109813;1271;22442;-66
2022/01/29 03:59:12;;;;;;;25.80;21.10;;;;;;;-2.78;85.64;98741.91;109819;1271;22422;-66
2022/01/29 04:01:40;;;;;;;26.50;20.60;;;;;;;-2.80;85.54;98743.57;109827;1271;22505;-68
2022/01/29 04:04:09;;;;;;;27.50;19.80;;;;;;;-2.81;85.87;98741.16;109806;1271;22452;-67
2022/01/29 04:06:37;;;;;;;27.60;19.70;;;;;;;-2.83;85.76;98741.14;109821;1271;23235;-67
2022/01/29 04:09:09;;;;;;;21.60;18.00;;;;;;;-2.84;85.59;98736.02;109823;1271;22399;-67
2022/01/29 04:11:39;;;;;;;25.30;18.20;;;;;;;-2.82;85.48;98737.88;109826;1270;22614;-67
2022/01/29 04:14:16;;;;;;;22.60;18.30;;;;;;;-2.82;85.92;98742.98;109824;1271;22552;-67
2022/01/29 04:16:45;;;;;;;24.40;19.90;;;;;;;-2.80;85.58;98733.09;109811;1271;23242;-67
2022/01/29 04:19:13;;;;;;;24.90;21.60;;;;;;;-2.80;85.67;98731.47;109808;1271;22422;-67
2022/01/29 04:21:41;;;;;;;30.40;27.00;;;;;;;-2.79;85.68;98732.59;109797;1271;23389;-67
2022/01/29 04:24:09;;;;;;;34.80;31.10;;;;;;;-2.78;86.01;98723.89;109818;1271;23274;-67
2022/01/29 04:26:37;;;;;;;39.30;35.10;;;;;;;-2.78;86.20;98721.59;109798;1271;22444;-67
2022/01/29 04:29:08;;;;;;;31.70;27.00;;;;;;;-2.75;85.72;98716.90;109812;1269;22412;-68
2022/01/29 04:32:07;;;;;;;24.40;20.80;;;;;;;-2.69;85.71;98713.76;109794;1271;23189;-67
2022/01/29 04:34:25;;;;;;;23.20;20.50;;;;;;;-2.64;85.83;98713.52;109802;1271;23263;-67
2022/01/29 04:36:53;;;;;;;23.80;20.30;;;;;;;-2.63;85.74;98712.66;109807;1271;23341;-67
2022/01/29 04:39:25;;;;;;;24.20;20.70;;;;;;;-2.63;85.84;98708.65;109811;1271;22425;-68
2022/01/29 04:41:53;;;;;;;24.80;20.00;;;;;;;-2.64;86.02;98710.31;109790;1271;22612;-68
2022/01/29 04:44:21;;;;;;;23.70;20.20;;;;;;;-2.65;85.86;98708.76;109812;1271;22500;-68
2022/01/29 04:46:49;;;;;;;22.50;19.60;;;;;;;-2.64;85.84;98705.48;109816;1271;22616;-69
2022/01/29 04:49:17;;;;;;;24.60;19.30;;;;;;;-2.62;85.89;98706.45;109822;1271;22424;-68
2022/01/29 04:51:45;;;;;;;24.90;20.40;;;;;;;-2.60;85.84;98704.20;109809;1271;22543;-68
2022/01/29 04:54:13;;;;;;;26.00;20.20;;;;;;;-2.60;85.77;98705.55;109798;1271;22440;-68
2022/01/29 04:56:41;;;;;;;25.50;22.40;;;;;;;-2.63;85.82;98705.77;109816;1271;22198;-68
2022/01/29 04:59:08;;;;;;;24.10;21.00;;;;;;;-2.67;85.89;98706.02;109822;1271;22445;-68
2022/01/29 05:01:38;;;;;;;25.70;23.00;;;;;;;-2.71;85.92;98700.73;109809;1271;22503;-68
2022/01/29 05:04:06;;;;;;;23.70;21.10;;;;;;;-2.74;85.90;98699.34;109818;1271;22431;-68
2022/01/29 05:06:34;;;;;;;21.70;19.00;;;;;;;-2.76;85.77;98697.61;109823;1271;23982;-69
2022/01/29 05:09:04;;;;;;;21.60;18.40;;;;;;;-2.76;85.66;98694.77;109816;1271;22410;-69
2022/01/29 05:11:33;;;;;;;22.90;20.30;;;;;;;-2.77;85.30;98693.95;109692;1273;22493;-69
2022/01/29 05:14:04;;;;;;;25.00;21.00;;;;;;;-2.79;85.39;98692.69;109820;1271;23087;-69
2022/01/29 05:17:19;;;;;;;22.50;20.10;;;;;;;-2.81;85.63;98684.60;109820;1271;22564;-69
2022/01/29 05:27:53;;;;;;;25.80;21.80;;;;;;;-2.87;85.53;98692.27;109806;1271;22452;-67
2022/01/29 05:30:21;;;;;;;26.00;23.20;;;;;;;-2.89;85.46;98685.52;109825;1271;23149;-67
2022/01/29 05:32:49;;;;;;;30.60;26.10;;;;;;;-2.93;85.72;98685.12;109801;1271;22494;-68
2022/01/29 05:35:17;;;;;;;28.70;25.40;;;;;;;-2.97;85.86;98683.35;109745;1271;22439;-68
2022/01/29 05:37:49;;;;;;;31.20;24.70;;;;;;;-3.00;85.82;98684.77;109739;1271;22460;-68
2022/01/29 05:40:17;;;;;;;27.50;22.90;;;;;;;-3.02;85.45;98682.41;109793;1271;22448;-68
2022/01/29 05:42:45;;;;;;;29.80;24.00;;;;;;;-3.02;85.48;98677.69;109807;1271;22540;-68
2022/01/29 05:45:14;;;;;;;34.70;30.10;;;;;;;-3.01;85.39;98683.56;109806;1271;22417;-68
2022/01/29 05:47:42;;;;;;;40.40;35.90;;;;;;;-3.03;85.24;98683.38;109761;1271;22370;-67
2022/01/29 05:50:10;;;;;;;42.70;34.40;;;;;;;-3.04;85.52;98683.88;109826;1271;22709;-67
2022/01/29 05:52:38;;;;;;;34.80;30.90;;;;;;;-3.08;85.51;98687.36;109794;1271;22449;-68
2022/01/29 05:55:07;;;;;;;30.70;27.40;;;;;;;-3.15;85.52;98692.07;109824;1271;22514;-68
2022/01/29 05:57:35;;;;;;;36.50;26.60;;;;;;;-3.16;85.59;98693.88;109824;1271;22633;-69
2022/01/29 06:00:05;;;;;;;32.90;26.20;;;;;;;-3.16;85.54;98699.43;109820;1271;22402;-67
2022/01/29 06:02:41;;;;;;;30.30;26.70;;;;;;;-3.15;85.64;98696.44;109782;1271;23218;-68
2022/01/29 06:05:10;;;;;;;32.00;28.50;;;;;;;-3.14;85.64;98696.61;109811;1271;22348;-67
2022/01/29 06:07:38;;;;;;;31.10;27.10;;;;;;;-3.15;85.74;98694.73;109807;1271;22408;-67
2022/01/29 06:10:06;;;;;;;35.10;28.60;;;;;;;-3.15;85.96;98690.88;109828;1271;22504;-67
2022/01/29 06:12:37;;;;;;;30.20;25.70;;;;;;;-3.13;85.94;98689.60;109811;1271;22478;-66
2022/01/29 06:15:06;;;;;;;30.60;24.70;;;;;;;-3.09;86.17;98686.59;109818;1271;22579;-66
2022/01/29 06:17:34;;;;;;;30.10;25.10;;;;;;;-3.01;86.19;98687.05;109818;1271;22678;-66
2022/01/29 06:20:02;;;;;;;35.70;29.40;;;;;;;-2.92;86.08;98685.66;109809;1271;22384;-67
2022/01/29 06:22:32;;;;;;;41.60;37.20;;;;;;;-2.85;86.16;98684.73;109751;1271;22586;-66
2022/01/29 06:25:00;;;;;;;38.60;34.50;;;;;;;-2.82;86.38;98683.05;109807;1271;22418;-66
2022/01/29 06:27:29;;;;;;;43.30;34.80;;;;;;;-2.79;86.29;98684.45;109813;1271;22523;-66
2022/01/29 06:29:57;;;;;;;42.50;30.60;;;;;;;-2.78;86.51;98676.58;109805;1271;22523;-67
2022/01/29 06:32:24;;;;;;;35.50;27.60;;;;;;;-2.77;86.29;98668.43;109819;1271;23255;-66
2022/01/29 06:34:53;;;;;;;32.20;26.90;;;;;;;-2.72;86.03;98667.92;109811;1271;23452;-66
2022/01/29 06:37:21;;;;;;;35.10;29.10;;;;;;;-2.72;86.03;98661.02;109818;1271;22445;-65
2022/01/29 06:39:50;;;;;;;50.00;45.00;;;;;;;-2.71;86.47;98656.17;109825;1271;22520;-65
2022/01/29 06:42:18;;;;;;;46.90;40.40;;;;;;;-2.69;86.30;98653.65;109815;1270;22475;-69
2022/01/29 06:44:46;;;;;;;44.40;36.80;;;;;;;-2.69;86.28;98652.23;109810;1269;22482;-66
2022/01/29 06:47:14;;;;;;;37.20;29.60;;;;;;;-2.66;86.39;98650.14;109812;1271;22498;-68
2022/01/29 06:49:42;;;;;;;43.60;31.70;;;;;;;-2.62;86.17;98644.48;109810;1271;22528;-67
2022/01/29 06:52:09;;;;;;;40.60;34.90;;;;;;;-2.57;86.21;98642.03;109797;1271;22582;-66
2022/01/29 06:54:37;;;;;;;45.50;38.90;;;;;;;-2.54;86.20;98637.58;109820;1271;22425;-66
2022/01/29 06:57:06;;;;;;;52.30;46.20;;;;;;;-2.53;86.32;98631.98;109800;1271;22398;-65
2022/01/29 06:59:34;;;;;;;65.90;55.90;;;;;;;-2.53;86.34;98632.09;109661;1273;23567;-66
2022/01/29 07:02:03;;;;;;;48.90;39.10;;;;;;;-2.54;86.52;98630.23;109811;1271;22527;-66
2022/01/29 07:04:32;;;;;;;41.80;30.70;;;;;;;-2.56;86.24;98632.02;109824;1271;22383;-66
2022/01/29 07:07:00;;;;;;;33.60;25.10;;;;;;;-2.58;86.03;98632.89;109809;1271;22406;-66
2022/01/29 07:09:28;;;;;;;34.70;27.00;;;;;;;-2.59;86.03;98637.92;109800;1270;22451;-67
2022/01/29 07:12:07;;;;;;;32.60;26.60;;;;;;;-2.60;85.88;98637.84;109816;1271;23225;-67
2022/01/29 07:14:39;;;;;;;37.10;30.60;;;;;;;-2.63;86.02;98637.55;109827;1271;22384;-66
2022/01/29 07:17:17;;;;;;;35.80;31.90;;;;;;;-2.65;86.24;98637.83;109791;1271;23216;-66
2022/01/29 07:19:45;;;;;;;37.20;31.10;;;;;;;-2.67;86.08;98634.43;109814;1269;22457;-66
2022/01/29 07:22:13;;;;;;;31.50;24.70;;;;;;;-2.66;86.28;98638.13;109823;1271;23355;-66
2022/01/29 07:24:42;;;;;;;32.50;25.30;;;;;;;-2.62;86.01;98635.43;109830;1268;22541;-66
2022/01/29 07:27:10;;;;;;;29.60;24.90;;;;;;;-2.60;85.98;98634.59;109831;1271;22509;-67
2022/01/29 07:29:38;;;;;;;33.70;27.30;;;;;;;-2.59;85.89;98632.21;109815;1269;23419;-65
2022/01/29 07:32:08;;;;;;;33.80;27.50;;;;;;;-2.57;85.82;98627.94;109816;1271;22478;-66
2022/01/29 07:34:36;;;;;;;30.40;27.10;;;;;;;-2.55;85.81;98631.37;109807;1271;23116;-66
2022/01/29 07:37:04;;;;;;;34.20;27.10;;;;;;;-2.51;85.72;98628.95;109818;1271;22520;-66
2022/01/29 07:39:33;;;;;;;33.30;25.30;;;;;;;-2.41;86.15;98625.38;109733;1271;22255;-68
2022/01/29 07:42:02;;;;;;;28.60;23.00;;;;;;;-2.30;86.11;98626.75;109811;1271;22434;-67
2022/01/29 07:44:30;;;;;;;30.80;24.50;;;;;;;-2.23;85.89;98620.89;109753;1271;22493;-69
2022/01/29 07:46:59;;;;;;;34.40;29.40;;;;;;;-2.21;85.64;98619.19;109663;1273;23397;-69
2022/01/29 07:49:27;;;;;;;29.50;24.90;;;;;;;-2.19;85.79;98615.49;109847;1271;22420;-69
2022/01/29 07:51:55;;;;;;;31.90;21.80;;;;;;;-2.14;85.85;98607.27;109817;1271;22576;-69
2022/01/29 07:54:23;;;;;;;28.90;23.60;;;;;;;-2.05;85.85;98600.38;109821;1271;22533;-70
2022/01/29 07:56:51;;;;;;;32.10;25.20;;;;;;;-1.93;85.87;98598.41;109822;1270;22429;-68
2022/01/29 07:59:28;;;;;;;31.60;27.60;;;;;;;-1.82;85.79;98596.44;109833;1271;22446;-68
2022/01/29 08:02:12;;;;;;;37.40;29.50;;;;;;;-1.74;85.63;98589.38;109836;1271;22359;-69
2022/01/29 08:04:46;;;;;;;36.60;29.20;;;;;;;-1.67;85.80;98589.42;109829;1270;23194;-67
2022/01/29 08:07:48;;;;;;;36.20;28.90;;;;;;;-1.60;85.63;98581.77;109832;1270;22572;-68
2022/01/29 08:10:18;;;;;;;34.80;25.80;;;;;;;-1.56;85.73;98575.91;109828;1270;22450;-68
2022/01/29 08:12:52;;;;;;;33.90;23.80;;;;;;;-1.49;85.38;98575.48;109822;1270;23204;-67
2022/01/29 08:15:25;;;;;;;39.70;28.50;;;;;;;-1.43;85.11;98572.27;109832;1270;22555;-67
2022/01/29 08:17:59;;;;;;;34.20;26.20;;;;;;;-1.37;84.86;98565.78;109834;1271;22317;-68
2022/01/29 08:21:02;;;;;;;37.80;27.10;;;;;;;-1.31;85.00;98568.91;109815;1271;22396;-66
2022/01/29 08:23:36;;;;;;;36.80;30.10;;;;;;;-1.23;85.35;98561.61;109849;1271;22601;-69
2022/01/29 08:26:10;;;;;;;33.60;27.10;;;;;;;-1.14;85.34;98555.86;109834;1271;22505;-69
2022/01/29 08:28:43;;;;;;;31.50;24.30;;;;;;;-1.07;85.02;98550.14;109819;1271;22427;-69
2022/01/29 08:31:16;;;;;;;30.20;22.70;;;;;;;-0.98;84.78;98551.91;109840;1270;22438;-68
2022/01/29 08:33:50;;;;;;;27.30;21.20;;;;;;;-0.88;84.50;98553.88;109817;1271;22572;-68
2022/01/29 08:36:23;;;;;;;25.30;20.90;;;;;;;-0.78;83.96;98550.83;109830;1269;22331;-67
2022/01/29 08:38:57;;;;;;;28.30;21.80;;;;;;;-0.68;84.27;98550.71;109833;1271;22441;-68
2022/01/29 08:41:30;;;;;;;28.50;22.00;;;;;;;-0.58;83.98;98547.82;109815;1271;22482;-67
2022/01/29 08:44:04;;;;;;;34.70;27.50;;;;;;;-0.49;83.92;98543.08;109839;1270;22504;-69
2022/01/29 08:46:37;;;;;;;24.60;18.80;;;;;;;-0.38;83.62;98541.41;109820;1271;23179;-69
2022/01/29 08:49:11;;;;;;;22.80;18.00;;;;;;;-0.26;82.45;98531.10;109823;1271;22368;-69
2022/01/29 08:51:44;;;;;;;26.90;19.60;;;;;;;-0.15;82.40;98527.17;109828;1270;22597;-69
2022/01/29 08:54:18;;;;;;;25.90;19.00;;;;;;;-0.09;82.39;98527.13;109827;1271;22374;-69
2022/01/29 08:56:51;;;;;;;24.30;18.50;;;;;;;-0.02;82.29;98526.92;109841;1271;22837;-68
2022/01/29 08:59:19;;;;;;;33.00;26.20;;;;;;;0.03;81.53;98527.30;109807;1271;23081;-68
2022/01/29 09:01:51;;;;;;;25.60;22.70;;;;;;;0.11;82.64;98523.06;109836;1271;22602;-68
2022/01/29 09:04:25;;;;;;;24.10;18.60;;;;;;;0.21;81.86;98520.66;109819;1270;22454;-68
2022/01/29 09:06:59;;;;;;;21.90;15.90;;;;;;;0.26;80.55;98518.75;109832;1270;22418;-69
2022/01/29 09:09:32;;;;;;;24.70;16.70;;;;;;;0.29;80.91;98513.52;109842;1270;22434;-69
2022/01/29 09:12:06;;;;;;;21.20;14.60;;;;;;;0.35;79.88;98511.63;109767;1271;22432;-69
2022/01/29 09:14:40;;;;;;;20.30;16.50;;;;;;;0.45;81.25;98516.18;109830;1270;23317;-68
2022/01/29 09:17:13;;;;;;;20.80;16.00;;;;;;;0.54;80.50;98510.52;109740;1271;23234;-69
2022/01/29 09:19:47;;;;;;;21.10;15.80;;;;;;;0.59;79.46;98507.81;109824;1271;22447;-69
2022/01/29 09:22:20;;;;;;;25.50;19.40;;;;;;;0.65;78.70;98506.23;109826;1271;22260;-69
2022/01/29 09:24:53;;;;;;;20.30;17.20;;;;;;;0.70;78.39;98504.56;109810;1270;23330;-69
2022/01/29 09:27:27;;;;;;;20.70;15.20;;;;;;;0.72;78.19;98495.72;109825;1270;22336;-69
2022/01/29 09:30:01;;;;;;;28.80;22.70;;;;;;;0.75;78.01;98499.53;109832;1269;22236;-69
2022/01/29 09:32:35;;;;;;;25.80;20.60;;;;;;;0.81;78.39;98497.99;109832;1271;22459;-68
2022/01/29 09:35:08;;;;;;;23.50;19.60;;;;;;;0.85;76.75;98497.38;109814;1270;22417;-69
2022/01/29 09:37:42;;;;;;;33.70;28.80;;;;;;;0.93;77.77;98487.61;109822;1270;22552;-68
2022/01/29 09:40:11;;;;;;;44.60;35.00;;;;;;;1.07;78.58;98477.45;109822;1271;22442;-69
2022/01/29 09:42:40;;;;;;;31.60;25.40;;;;;;;1.22;79.01;98475.17;109828;1271;22566;-67
2022/01/29 09:45:09;;;;;;;32.70;22.40;;;;;;;1.43;78.83;98470.73;109821;1271;22523;-67
2022/01/29 09:47:41;;;;;;;24.60;20.80;;;;;;;1.61;78.95;98459.30;109527;1271;137074;-70
2022/01/29 09:50:11;;;;;;;27.80;19.70;;;;;;;1.76;78.01;98453.91;109359;1276;23306;-70
2022/01/29 09:52:39;;;;;;;23.60;18.90;;;;;;;1.87;77.50;98446.20;109246;1277;22500;-69
2022/01/29 09:55:08;;;;;;;27.40;19.50;;;;;;;1.94;77.26;98445.58;109365;1276;22469;-70
2022/01/29 09:57:36;;;;;;;26.50;20.60;;;;;;;1.98;78.12;98439.86;109475;1276;22559;-69
2022/01/29 10:00:07;;;;;;;25.00;19.20;;;;;;;2.04;77.09;98428.95;109403;1276;23332;-68
2022/01/29 10:02:41;;;;;;;28.50;23.80;;;;;;;2.06;75.54;98430.91;109500;1276;22580;-67
2022/01/29 10:05:11;;;;;;;29.70;22.40;;;;;;;2.07;75.75;98435.52;109509;1276;22452;-67
2022/01/29 10:07:40;;;;;;;30.70;24.90;;;;;;;2.02;73.24;98431.14;109499;1276;22463;-68
2022/01/29 10:10:19;;;;;;;27.30;20.20;;;;;;;1.95;73.45;98430.33;109505;1276;22535;-68
2022/01/29 10:12:47;;;;;;;32.40;26.40;;;;;;;1.84;72.79;98423.83;109510;1276;22635;-66
2022/01/29 10:15:15;;;;;;;36.70;28.40;;;;;;;1.76;74.45;98416.10;109387;1276;22581;-68
2022/01/29 10:17:47;;;;;;;36.30;27.40;;;;;;;1.69;74.71;98418.91;109492;1275;22464;-69
2022/01/29 10:20:27;;;;;;;40.00;30.30;;;;;;;1.64;75.08;98413.59;109484;1276;22606;-68
2022/01/29 10:23:01;;;;;;;58.30;42.00;;;;;;;1.62;74.35;98418.81;109375;1276;22526;-68
2022/01/29 10:25:33;;;;;;;51.60;33.60;;;;;;;1.61;75.04;98413.40;109512;1276;22622;-66
2022/01/29 10:28:06;;;;;;;49.60;33.90;;;;;;;1.54;75.17;98403.94;109530;1276;22329;-67
2022/01/29 10:30:36;;;;;;;36.70;24.00;;;;;;;1.49;75.24;98401.52;109511;1276;23630;-68
2022/01/29 10:33:22;;;;;;;29.80;21.50;;;;;;;1.42;75.09;98399.02;109517;1276;22516;-68
2022/01/29 10:35:56;;;;;;;31.80;21.80;;;;;;;1.34;75.86;98386.98;109466;1276;22572;-68
2022/01/29 10:38:55;;;;;;;26.30;18.30;;;;;;;1.33;75.66;98384.46;109315;1277;22432;-67
2022/01/29 10:41:30;;;;;;;28.50;21.40;;;;;;;1.30;75.40;98385.66;109404;1277;23575;-68
2022/01/29 10:44:12;;;;;;;27.50;17.00;;;;;;;1.35;75.70;98372.23;109381;1277;22500;-68
2022/01/29 10:46:47;;;;;;;29.00;19.40;;;;;;;1.41;75.75;98368.35;109298;1277;22262;-67
2022/01/29 10:49:27;;;;;;;27.10;20.00;;;;;;;1.48;75.80;98361.34;109407;1275;22436;-67
2022/01/29 10:51:57;;;;;;;27.50;17.10;;;;;;;1.57;75.19;98357.42;109377;1277;22471;-66
2022/01/29 10:54:26;;;;;;;35.00;21.00;;;;;;;1.67;75.64;98348.64;109399;1277;23244;-67
2022/01/29 10:57:04;;;;;;;31.20;21.70;;;;;;;1.71;74.78;98347.81;109398;1276;23065;-67
2022/01/29 10:59:46;;;;;;;32.70;21.10;;;;;;;1.74;74.95;98341.30;109497;1276;22581;-68
2022/01/29 11:02:16;;;;;;;30.90;19.20;;;;;;;1.78;74.98;98334.16;109526;1276;22423;-67
2022/01/29 11:04:45;;;;;;;31.50;21.30;;;;;;;1.85;76.30;98325.02;109519;1276;22437;-66
2022/01/29 11:07:18;;;;;;;28.40;17.80;;;;;;;1.94;76.36;98313.90;109536;1276;22530;-66
2022/01/29 11:09:51;;;;;;;35.50;20.30;;;;;;;2.00;76.37;98318.07;109401;1276;22504;-67
2022/01/29 11:12:26;;;;;;;31.00;20.70;;;;;;;2.00;75.15;98315.20;109511;1276;22680;-69
2022/01/29 11:15:02;;;;;;;42.00;26.60;;;;;;;1.96;74.15;98320.17;109457;1276;23342;-68
2022/01/29 11:17:31;;;;;;;32.90;18.70;;;;;;;1.86;73.72;98312.98;109392;1275;23270;-66
2022/01/29 11:20:04;;;;;;;26.70;17.90;;;;;;;1.78;74.52;98305.10;109542;1276;22457;-66
2022/01/29 11:22:43;;;;;;;33.10;21.00;;;;;;;1.73;74.66;98298.92;109523;1275;22322;-66
2022/01/29 11:25:26;;;;;;;34.90;23.90;;;;;;;1.75;75.40;98294.30;109396;1276;22436;-67
2022/01/29 11:28:20;;;;;;;33.10;20.00;;;;;;;1.76;74.74;98284.65;109414;1276;22587;-66
2022/01/29 11:31:20;;;;;;;40.50;29.90;;;;;;;1.77;75.66;98279.90;109467;1276;22473;-67
2022/01/29 11:34:02;;;;;;;30.00;21.90;;;;;;;1.79;75.71;98267.55;109366;1277;22180;-67
2022/01/29 11:36:57;;;;;;;28.40;19.60;;;;;;;1.79;75.61;98262.03;109504;1276;22450;-67
2022/01/29 11:39:39;;;;;;;29.60;19.10;;;;;;;1.80;76.14;98255.63;109514;1276;22453;-67
2022/01/29 11:42:32;;;;;;;24.40;17.00;;;;;;;1.85;75.00;98251.09;109414;1276;22567;-67